To NAV CANADA Home Page Login to a new session Search on AWWS site Feedback and Comments Disclaimer Vers la page française équivalente Tips FAQ What's new on the site To the Forecasts and Observations / NOTAM section To "File a Flight Plan" website Publications and other links Update of the User's profile FIC Telephone Numbers My Weather Data Folder Route Weather Data Regional Weather Data Local Weather Data To the Forecasts and Observations / NOTAM section
Request Generated 08/22/2017 at 03:30:41 UTC . Weather information available at that time is displayed.

METAR/TAF

GOOSE BAY/NL    

SPECI CYYR 220307Z 10006KT 15SM FEW011 FEW015 SCT060 BKN110 12/09 A2975 RMK SF1SC2SC1AC4 SLP076=
METAR CYYR 220300Z 08007KT 15SM FEW011 BKN015 BKN060 BKN120 12/09 A2975 RMK SF2SC3SC1AC2 SLP075=
SPECI CYYR 220243Z 07004KT 15SM BKN012 BKN060 BKN120 BKN240 12/09 A2975 RMK SC5SC1AC1CI1 SLP074=
SPECI CYYR 220218Z 09004KT 15SM BKN018 BKN060 BKN240 12/09 A2975 RMK SC5SC1CI1 SLP075=
METAR CYYR 220200Z 10005KT 15SM SCT018 BKN060 BKN240 12/09 A2975 RMK SC4SC2CI2 SLP076=
METAR CYYR 220100Z 09006KT 15SM FEW060 FEW140 FEW260 13/09 A2975 RMK SC1AC1CI1 SLP075=

TAF AMD CYYR 220222Z 2202/2224 08005KT P6SM BKN025 BKN060 TEMPO
2202/2205 BKN012 BKN060
FM220500 04012KT P6SM SCT012 OVC025 TEMPO 2205/2208 6SM -RA BR
SCT006 OVC010
FM220800 05012KT 3SM -RA -DZ BR BKN006 OVC015
FM221500 04012KT 6SM -RA -DZ BR BKN010 OVC020
RMK NXT FCST BY 220600Z=
Your time UTC time
Weather data provided by Environment Canada and NAV CANADA